sensor_id;sensor_type;location;lat;lon;timestamp;temperature;humidity
22734;DHT22;11534;51.994;5.692;2023-07-31T00:02:15;16.50;99.90
22734;DHT22;11534;51.994;5.692;2023-07-31T00:04:41;16.50;99.90
22734;DHT22;11534;51.994;5.692;2023-07-31T00:07:07;16.50;99.90
22734;DHT22;11534;51.994;5.692;2023-07-31T00:09:33;16.50;99.90
22734;DHT22;11534;51.994;5.692;2023-07-31T00:11:59;16.50;99.90
22734;DHT22;11534;51.994;5.692;2023-07-31T00:14:24;16.50;99.90
22734;DHT22;11534;51.994;5.692;2023-07-31T00:16:50;16.50;99.90
22734;DHT22;11534;51.994;5.692;2023-07-31T00:19:15;16.50;99.90
22734;DHT22;11534;51.994;5.692;2023-07-31T00:21:41;16.50;99.90
22734;DHT22;11534;51.994;5.692;2023-07-31T00:24:07;16.50;99.90
22734;DHT22;11534;51.994;5.692;2023-07-31T00:26:32;16.60;99.90
22734;DHT22;11534;51.994;5.692;2023-07-31T00:28:58;16.50;99.90
22734;DHT22;11534;51.994;5.692;2023-07-31T00:31:23;16.60;99.90
22734;DHT22;11534;51.994;5.692;2023-07-31T00:33:49;16.60;99.90
22734;DHT22;11534;51.994;5.692;2023-07-31T00:36:15;16.60;99.90
22734;DHT22;11534;51.994;5.692;2023-07-31T00:38:40;16.60;99.90
22734;DHT22;11534;51.994;5.692;2023-07-31T00:41:06;16.70;99.90
22734;DHT22;11534;51.994;5.692;2023-07-31T00:43:31;16.70;99.90
22734;DHT22;11534;51.994;5.692;2023-07-31T00:45:57;16.70;99.90
22734;DHT22;11534;51.994;5.692;2023-07-31T00:48:23;16.80;99.90
22734;DHT22;11534;51.994;5.692;2023-07-31T00:50:49;16.80;99.90
22734;DHT22;11534;51.994;5.692;2023-07-31T00:53:15;16.80;99.90
22734;DHT22;11534;51.994;5.692;2023-07-31T00:55:41;16.90;99.90
22734;DHT22;11534;51.994;5.692;2023-07-31T00:58:07;16.90;99.90
22734;DHT22;11534;51.994;5.692;2023-07-31T01:00:33;17.00;99.90
22734;DHT22;11534;51.994;5.692;2023-07-31T01:02:59;17.00;99.90
22734;DHT22;11534;51.994;5.692;2023-07-31T01:08:24;16.90;99.90
22734;DHT22;11534;51.994;5.692;2023-07-31T01:10:57;17.00;99.90
22734;DHT22;11534;51.994;5.692;2023-07-31T01:13:25;17.00;99.90
22734;DHT22;11534;51.994;5.692;2023-07-31T01:15:50;17.00;99.90
22734;DHT22;11534;51.994;5.692;2023-07-31T01:18:16;17.00;99.90
22734;DHT22;11534;51.994;5.692;2023-07-31T01:20:42;17.10;99.90
22734;DHT22;11534;51.994;5.692;2023-07-31T01:23:35;17.10;99.90
22734;DHT22;11534;51.994;5.692;2023-07-31T01:26:23;17.10;99.90
22734;DHT22;11534;51.994;5.692;2023-07-31T01:29:01;17.10;99.90
22734;DHT22;11534;51.994;5.692;2023-07-31T01:31:29;17.10;99.90
22734;DHT22;11534;51.994;5.692;2023-07-31T01:34:01;17.10;99.90
22734;DHT22;11534;51.994;5.692;2023-07-31T01:36:28;17.00;99.90
22734;DHT22;11534;51.994;5.692;2023-07-31T01:39:01;17.10;99.90
22734;DHT22;11534;51.994;5.692;2023-07-31T01:41:27;17.10;99.90
22734;DHT22;11534;51.994;5.692;2023-07-31T01:43:53;17.10;99.90
22734;DHT22;11534;51.994;5.692;2023-07-31T01:46:19;17.10;99.90
22734;DHT22;11534;51.994;5.692;2023-07-31T01:48:44;17.10;99.90
22734;DHT22;11534;51.994;5.692;2023-07-31T01:51:10;17.00;99.90
22734;DHT22;11534;51.994;5.692;2023-07-31T01:53:35;17.10;99.90
22734;DHT22;11534;51.994;5.692;2023-07-31T01:56:01;17.10;99.90
22734;DHT22;11534;51.994;5.692;2023-07-31T01:58:27;17.00;99.90
22734;DHT22;11534;51.994;5.692;2023-07-31T02:00:52;17.10;99.90
22734;DHT22;11534;51.994;5.692;2023-07-31T02:03:18;17.10;99.90
22734;DHT22;11534;51.994;5.692;2023-07-31T02:05:48;17.10;99.90
22734;DHT22;11534;51.994;5.692;2023-07-31T02:08:14;17.00;99.90
22734;DHT22;11534;51.994;5.692;2023-07-31T02:10:40;17.00;99.90
22734;DHT22;11534;51.994;5.692;2023-07-31T02:13:05;17.00;99.90
22734;DHT22;11534;51.994;5.692;2023-07-31T02:15:31;17.00;99.90
22734;DHT22;11534;51.994;5.692;2023-07-31T02:17:57;17.00;99.90
22734;DHT22;11534;51.994;5.692;2023-07-31T02:20:23;17.00;99.90
22734;DHT22;11534;51.994;5.692;2023-07-31T02:22:48;16.90;99.90
22734;DHT22;11534;51.994;5.692;2023-07-31T02:25:14;17.00;99.90
22734;DHT22;11534;51.994;5.692;2023-07-31T02:27:40;16.90;99.90
22734;DHT22;11534;51.994;5.692;2023-07-31T02:30:06;17.00;99.90
22734;DHT22;11534;51.994;5.692;2023-07-31T02:32:32;17.00;99.90
22734;DHT22;11534;51.994;5.692;2023-07-31T02:34:57;17.00;99.90
22734;DHT22;11534;51.994;5.692;2023-07-31T02:37:23;17.00;99.90
22734;DHT22;11534;51.994;5.692;2023-07-31T02:39:49;17.00;99.90
22734;DHT22;11534;51.994;5.692;2023-07-31T02:42:15;17.00;99.90
22734;DHT22;11534;51.994;5.692;2023-07-31T02:44:40;17.00;99.90
22734;DHT22;11534;51.994;5.692;2023-07-31T02:47:06;16.90;99.90
22734;DHT22;11534;51.994;5.692;2023-07-31T02:49:32;17.00;99.90
22734;DHT22;11534;51.994;5.692;2023-07-31T02:51:57;17.00;99.90
22734;DHT22;11534;51.994;5.692;2023-07-31T02:54:23;17.00;99.90
22734;DHT22;11534;51.994;5.692;2023-07-31T02:56:49;17.00;99.90
22734;DHT22;11534;51.994;5.692;2023-07-31T02:59:15;17.00;99.90
22734;DHT22;11534;51.994;5.692;2023-07-31T03:01:40;16.90;99.90
22734;DHT22;11534;51.994;5.692;2023-07-31T03:04:06;16.90;99.90
22734;DHT22;11534;51.994;5.692;2023-07-31T03:06:32;16.90;99.90
22734;DHT22;11534;51.994;5.692;2023-07-31T03:08:59;17.00;99.90
22734;DHT22;11534;51.994;5.692;2023-07-31T03:11:24;16.90;99.90
22734;DHT22;11534;51.994;5.692;2023-07-31T03:13:50;16.90;99.90
22734;DHT22;11534;51.994;5.692;2023-07-31T03:16:15;16.90;99.90
22734;DHT22;11534;51.994;5.692;2023-07-31T03:18:41;16.90;99.90
22734;DHT22;11534;51.994;5.692;2023-07-31T03:21:07;16.90;99.90
22734;DHT22;11534;51.994;5.692;2023-07-31T03:23:32;16.80;99.90
22734;DHT22;11534;51.994;5.692;2023-07-31T03:25:59;16.80;99.90
22734;DHT22;11534;51.994;5.692;2023-07-31T03:28:25;16.80;99.90
22734;DHT22;11534;51.994;5.692;2023-07-31T03:30:51;16.80;99.90
22734;DHT22;11534;51.994;5.692;2023-07-31T03:33:17;16.80;99.90
22734;DHT22;11534;51.994;5.692;2023-07-31T03:35:43;16.80;99.90
22734;DHT22;11534;51.994;5.692;2023-07-31T03:38:09;16.80;99.90
22734;DHT22;11534;51.994;5.692;2023-07-31T03:40:34;16.80;99.90
22734;DHT22;11534;51.994;5.692;2023-07-31T03:43:00;16.80;99.90
22734;DHT22;11534;51.994;5.692;2023-07-31T03:45:26;16.80;99.90
22734;DHT22;11534;51.994;5.692;2023-07-31T03:47:51;16.70;99.90
22734;DHT22;11534;51.994;5.692;2023-07-31T03:50:17;16.80;99.90
22734;DHT22;11534;51.994;5.692;2023-07-31T03:52:42;16.80;99.90
22734;DHT22;11534;51.994;5.692;2023-07-31T03:55:08;16.80;99.90
22734;DHT22;11534;51.994;5.692;2023-07-31T03:57:34;16.80;99.90
22734;DHT22;11534;51.994;5.692;2023-07-31T04:00:00;16.80;99.90
22734;DHT22;11534;51.994;5.692;2023-07-31T04:02:26;16.80;99.90
22734;DHT22;11534;51.994;5.692;2023-07-31T04:04:51;16.80;99.90
22734;DHT22;11534;51.994;5.692;2023-07-31T04:07:17;16.80;99.90
22734;DHT22;11534;51.994;5.692;2023-07-31T04:09:42;16.70;99.90
22734;DHT22;11534;51.994;5.692;2023-07-31T04:12:08;16.80;99.90
22734;DHT22;11534;51.994;5.692;2023-07-31T04:14:34;16.80;99.90
22734;DHT22;11534;51.994;5.692;2023-07-31T04:16:59;16.80;99.90
22734;DHT22;11534;51.994;5.692;2023-07-31T04:19:25;16.80;99.90
22734;DHT22;11534;51.994;5.692;2023-07-31T04:21:50;16.80;99.90
22734;DHT22;11534;51.994;5.692;2023-07-31T04:24:16;16.70;99.90
22734;DHT22;11534;51.994;5.692;2023-07-31T04:26:47;16.70;99.90
22734;DHT22;11534;51.994;5.692;2023-07-31T04:29:13;16.70;99.90
22734;DHT22;11534;51.994;5.692;2023-07-31T04:31:38;16.70;99.90
22734;DHT22;11534;51.994;5.692;2023-07-31T04:34:04;16.70;99.90
22734;DHT22;11534;51.994;5.692;2023-07-31T04:36:30;16.80;99.90
22734;DHT22;11534;51.994;5.692;2023-07-31T04:38:55;16.80;99.90
22734;DHT22;11534;51.994;5.692;2023-07-31T04:41:21;16.80;99.90
22734;DHT22;11534;51.994;5.692;2023-07-31T04:43:47;16.80;99.90
22734;DHT22;11534;51.994;5.692;2023-07-31T04:46:12;16.70;99.90
22734;DHT22;11534;51.994;5.692;2023-07-31T04:48:38;16.70;99.90
22734;DHT22;11534;51.994;5.692;2023-07-31T04:51:03;16.70;99.90
22734;DHT22;11534;51.994;5.692;2023-07-31T04:53:29;16.70;99.90
22734;DHT22;11534;51.994;5.692;2023-07-31T04:55:55;16.70;99.90
22734;DHT22;11534;51.994;5.692;2023-07-31T04:58:20;16.70;99.90
22734;DHT22;11534;51.994;5.692;2023-07-31T05:00:46;16.70;99.90
22734;DHT22;11534;51.994;5.692;2023-07-31T05:03:11;16.70;99.90
22734;DHT22;11534;51.994;5.692;2023-07-31T05:05:37;16.70;99.90
22734;DHT22;11534;51.994;5.692;2023-07-31T05:08:03;16.80;99.90
22734;DHT22;11534;51.994;5.692;2023-07-31T05:10:28;16.80;99.90
22734;DHT22;11534;51.994;5.692;2023-07-31T05:12:54;16.70;99.90
22734;DHT22;11534;51.994;5.692;2023-07-31T05:15:19;16.70;99.90
22734;DHT22;11534;51.994;5.692;2023-07-31T05:17:45;16.70;99.90
22734;DHT22;11534;51.994;5.692;2023-07-31T05:20:11;16.70;99.90
22734;DHT22;11534;51.994;5.692;2023-07-31T05:22:37;16.70;99.90
22734;DHT22;11534;51.994;5.692;2023-07-31T05:25:02;16.60;99.90
22734;DHT22;11534;51.994;5.692;2023-07-31T05:27:28;16.70;99.90
22734;DHT22;11534;51.994;5.692;2023-07-31T05:29:53;16.70;99.90
22734;DHT22;11534;51.994;5.692;2023-07-31T05:32:19;16.70;99.90
22734;DHT22;11534;51.994;5.692;2023-07-31T05:34:45;16.70;99.90
22734;DHT22;11534;51.994;5.692;2023-07-31T05:37:11;16.70;99.90
22734;DHT22;11534;51.994;5.692;2023-07-31T05:39:37;16.60;99.90
22734;DHT22;11534;51.994;5.692;2023-07-31T05:42:03;16.60;99.90
22734;DHT22;11534;51.994;5.692;2023-07-31T05:44:29;16.60;99.90
22734;DHT22;11534;51.994;5.692;2023-07-31T05:46:55;16.70;99.90
22734;DHT22;11534;51.994;5.692;2023-07-31T05:49:21;16.60;99.90
22734;DHT22;11534;51.994;5.692;2023-07-31T05:51:46;16.60;99.90
22734;DHT22;11534;51.994;5.692;2023-07-31T05:54:12;16.60;99.90
22734;DHT22;11534;51.994;5.692;2023-07-31T05:56:38;16.60;99.90
22734;DHT22;11534;51.994;5.692;2023-07-31T05:59:03;16.50;99.90
22734;DHT22;11534;51.994;5.692;2023-07-31T06:01:30;16.60;99.90
22734;DHT22;11534;51.994;5.692;2023-07-31T06:03:56;16.60;99.90
22734;DHT22;11534;51.994;5.692;2023-07-31T06:06:21;16.60;99.90
22734;DHT22;11534;51.994;5.692;2023-07-31T06:08:47;16.60;99.90
22734;DHT22;11534;51.994;5.692;2023-07-31T06:11:12;16.60;99.90
22734;DHT22;11534;51.994;5.692;2023-07-31T06:13:38;16.60;99.90
22734;DHT22;11534;51.994;5.692;2023-07-31T06:16:04;16.60;99.90
22734;DHT22;11534;51.994;5.692;2023-07-31T06:18:34;16.50;99.90
22734;DHT22;11534;51.994;5.692;2023-07-31T06:21:00;16.60;99.90
22734;DHT22;11534;51.994;5.692;2023-07-31T06:23:26;16.60;99.90
22734;DHT22;11534;51.994;5.692;2023-07-31T06:25:51;16.60;99.90
22734;DHT22;11534;51.994;5.692;2023-07-31T06:28:17;16.60;99.90
22734;DHT22;11534;51.994;5.692;2023-07-31T06:30:42;16.60;99.90
22734;DHT22;11534;51.994;5.692;2023-07-31T06:33:08;16.60;99.90
22734;DHT22;11534;51.994;5.692;2023-07-31T06:35:34;16.60;99.90
22734;DHT22;11534;51.994;5.692;2023-07-31T06:38:00;16.60;99.90
22734;DHT22;11534;51.994;5.692;2023-07-31T06:40:27;16.60;99.90
22734;DHT22;11534;51.994;5.692;2023-07-31T06:42:52;16.70;99.90
22734;DHT22;11534;51.994;5.692;2023-07-31T06:45:18;16.70;99.90
22734;DHT22;11534;51.994;5.692;2023-07-31T06:47:43;16.70;99.90
22734;DHT22;11534;51.994;5.692;2023-07-31T06:50:09;16.70;99.90
22734;DHT22;11534;51.994;5.692;2023-07-31T06:52:35;16.70;99.90
22734;DHT22;11534;51.994;5.692;2023-07-31T06:55:17;16.80;99.90
22734;DHT22;11534;51.994;5.692;2023-07-31T06:57:44;16.70;99.90
22734;DHT22;11534;51.994;5.692;2023-07-31T07:00:10;16.80;99.90
22734;DHT22;11534;51.994;5.692;2023-07-31T07:02:36;16.80;99.90
22734;DHT22;11534;51.994;5.692;2023-07-31T07:05:02;16.80;99.90
22734;DHT22;11534;51.994;5.692;2023-07-31T07:07:28;16.80;99.90
22734;DHT22;11534;51.994;5.692;2023-07-31T07:09:53;16.90;99.90
22734;DHT22;11534;51.994;5.692;2023-07-31T07:12:19;16.90;99.90
22734;DHT22;11534;51.994;5.692;2023-07-31T07:14:45;16.90;99.90
22734;DHT22;11534;51.994;5.692;2023-07-31T07:17:13;17.00;99.90
22734;DHT22;11534;51.994;5.692;2023-07-31T07:19:41;17.00;99.90
22734;DHT22;11534;51.994;5.692;2023-07-31T07:22:07;17.00;99.90
22734;DHT22;11534;51.994;5.692;2023-07-31T07:24:33;17.00;99.90
22734;DHT22;11534;51.994;5.692;2023-07-31T07:26:59;17.00;99.90
22734;DHT22;11534;51.994;5.692;2023-07-31T07:29:24;17.00;99.90
22734;DHT22;11534;51.994;5.692;2023-07-31T07:31:50;16.90;99.90
22734;DHT22;11534;51.994;5.692;2023-07-31T07:34:16;17.00;99.90
22734;DHT22;11534;51.994;5.692;2023-07-31T07:36:41;17.00;99.90
22734;DHT22;11534;51.994;5.692;2023-07-31T07:39:09;17.00;99.90
22734;DHT22;11534;51.994;5.692;2023-07-31T07:41:35;17.00;99.90
22734;DHT22;11534;51.994;5.692;2023-07-31T07:44:01;17.00;99.90
22734;DHT22;11534;51.994;5.692;2023-07-31T07:46:26;16.90;99.90
22734;DHT22;11534;51.994;5.692;2023-07-31T07:48:52;16.90;99.90
22734;DHT22;11534;51.994;5.692;2023-07-31T07:51:17;17.00;99.90
22734;DHT22;11534;51.994;5.692;2023-07-31T07:53:43;17.00;99.90
22734;DHT22;11534;51.994;5.692;2023-07-31T07:56:09;17.00;99.90
22734;DHT22;11534;51.994;5.692;2023-07-31T07:58:34;17.00;99.90
22734;DHT22;11534;51.994;5.692;2023-07-31T08:01:00;17.00;99.90
22734;DHT22;11534;51.994;5.692;2023-07-31T08:03:26;17.00;99.90
22734;DHT22;11534;51.994;5.692;2023-07-31T08:05:51;17.00;99.90
22734;DHT22;11534;51.994;5.692;2023-07-31T08:08:17;17.10;99.90
22734;DHT22;11534;51.994;5.692;2023-07-31T08:10:43;17.00;99.90
22734;DHT22;11534;51.994;5.692;2023-07-31T08:13:11;17.00;99.90
22734;DHT22;11534;51.994;5.692;2023-07-31T08:15:37;17.00;99.90
22734;DHT22;11534;51.994;5.692;2023-07-31T08:18:02;17.10;99.90
22734;DHT22;11534;51.994;5.692;2023-07-31T08:20:28;17.10;99.90
22734;DHT22;11534;51.994;5.692;2023-07-31T08:22:54;17.20;99.90
22734;DHT22;11534;51.994;5.692;2023-07-31T08:25:19;17.20;99.90
22734;DHT22;11534;51.994;5.692;2023-07-31T08:27:45;17.20;99.90
22734;DHT22;11534;51.994;5.692;2023-07-31T08:30:12;17.20;99.90
22734;DHT22;11534;51.994;5.692;2023-07-31T08:32:38;17.30;99.90
22734;DHT22;11534;51.994;5.692;2023-07-31T08:35:04;17.30;99.90
22734;DHT22;11534;51.994;5.692;2023-07-31T08:37:29;17.20;99.90
22734;DHT22;11534;51.994;5.692;2023-07-31T08:39:55;17.30;99.90
22734;DHT22;11534;51.994;5.692;2023-07-31T08:42:21;17.40;99.90
22734;DHT22;11534;51.994;5.692;2023-07-31T08:44:46;17.40;99.90
22734;DHT22;11534;51.994;5.692;2023-07-31T08:47:13;17.40;99.90
22734;DHT22;11534;51.994;5.692;2023-07-31T08:49:39;17.50;99.90
22734;DHT22;11534;51.994;5.692;2023-07-31T08:52:06;17.50;99.90
22734;DHT22;11534;51.994;5.692;2023-07-31T08:54:32;17.50;99.90
22734;DHT22;11534;51.994;5.692;2023-07-31T08:56:59;17.50;99.90
22734;DHT22;11534;51.994;5.692;2023-07-31T08:59:28;17.50;99.90
22734;DHT22;11534;51.994;5.692;2023-07-31T09:01:55;17.50;99.90
22734;DHT22;11534;51.994;5.692;2023-07-31T09:04:23;17.50;99.90
22734;DHT22;11534;51.994;5.692;2023-07-31T09:06:49;17.50;99.90
22734;DHT22;11534;51.994;5.692;2023-07-31T09:09:15;17.50;99.90
22734;DHT22;11534;51.994;5.692;2023-07-31T09:11:41;17.50;99.90
22734;DHT22;11534;51.994;5.692;2023-07-31T09:14:08;17.50;99.90
22734;DHT22;11534;51.994;5.692;2023-07-31T09:16:34;17.50;99.90
22734;DHT22;11534;51.994;5.692;2023-07-31T09:19:00;17.50;99.90
22734;DHT22;11534;51.994;5.692;2023-07-31T09:21:30;17.50;99.90
22734;DHT22;11534;51.994;5.692;2023-07-31T09:23:56;17.50;99.90
22734;DHT22;11534;51.994;5.692;2023-07-31T09:26:33;17.50;99.90
22734;DHT22;11534;51.994;5.692;2023-07-31T09:29:00;17.50;99.90
22734;DHT22;11534;51.994;5.692;2023-07-31T09:31:53;17.50;99.90
22734;DHT22;11534;51.994;5.692;2023-07-31T09:34:20;17.50;99.90
22734;DHT22;11534;51.994;5.692;2023-07-31T09:36:50;17.50;99.90
22734;DHT22;11534;51.994;5.692;2023-07-31T09:39:16;17.50;99.90
22734;DHT22;11534;51.994;5.692;2023-07-31T09:41:44;17.60;99.90
22734;DHT22;11534;51.994;5.692;2023-07-31T09:44:10;17.60;99.90
22734;DHT22;11534;51.994;5.692;2023-07-31T09:46:36;17.60;99.90
22734;DHT22;11534;51.994;5.692;2023-07-31T09:49:10;17.60;99.90
22734;DHT22;11534;51.994;5.692;2023-07-31T09:51:38;17.70;99.90
22734;DHT22;11534;51.994;5.692;2023-07-31T09:54:14;17.70;99.90
22734;DHT22;11534;51.994;5.692;2023-07-31T09:56:46;17.80;99.90
22734;DHT22;11534;51.994;5.692;2023-07-31T09:59:14;17.80;99.90
22734;DHT22;11534;51.994;5.692;2023-07-31T10:01:40;17.80;99.90
22734;DHT22;11534;51.994;5.692;2023-07-31T10:04:08;17.80;99.90
22734;DHT22;11534;51.994;5.692;2023-07-31T10:06:36;17.80;99.90
22734;DHT22;11534;51.994;5.692;2023-07-31T10:09:07;17.80;99.90
22734;DHT22;11534;51.994;5.692;2023-07-31T10:11:46;17.80;99.90
22734;DHT22;11534;51.994;5.692;2023-07-31T10:14:20;17.90;99.90
22734;DHT22;11534;51.994;5.692;2023-07-31T10:16:45;17.80;99.90
22734;DHT22;11534;51.994;5.692;2023-07-31T10:19:11;17.90;99.90
22734;DHT22;11534;51.994;5.692;2023-07-31T10:21:38;17.90;99.90
22734;DHT22;11534;51.994;5.692;2023-07-31T10:24:04;18.00;99.90
22734;DHT22;11534;51.994;5.692;2023-07-31T10:26:32;18.00;99.90
22734;DHT22;11534;51.994;5.692;2023-07-31T10:29:01;18.00;99.90
22734;DHT22;11534;51.994;5.692;2023-07-31T10:31:28;18.00;99.90
22734;DHT22;11534;51.994;5.692;2023-07-31T10:33:55;18.00;99.90
22734;DHT22;11534;51.994;5.692;2023-07-31T10:36:21;17.90;99.90
22734;DHT22;11534;51.994;5.692;2023-07-31T10:38:50;18.00;99.90
22734;DHT22;11534;51.994;5.692;2023-07-31T10:41:18;18.10;99.90
22734;DHT22;11534;51.994;5.692;2023-07-31T10:43:46;18.10;99.90
22734;DHT22;11534;51.994;5.692;2023-07-31T10:46:13;18.10;99.90
22734;DHT22;11534;51.994;5.692;2023-07-31T10:48:41;18.10;99.90
22734;DHT22;11534;51.994;5.692;2023-07-31T10:51:13;18.20;99.90
22734;DHT22;11534;51.994;5.692;2023-07-31T10:53:39;18.20;99.90
22734;DHT22;11534;51.994;5.692;2023-07-31T10:56:08;18.20;99.90
22734;DHT22;11534;51.994;5.692;2023-07-31T10:58:35;18.20;99.90
22734;DHT22;11534;51.994;5.692;2023-07-31T11:01:03;18.30;99.90
22734;DHT22;11534;51.994;5.692;2023-07-31T11:03:47;18.30;99.90
22734;DHT22;11534;51.994;5.692;2023-07-31T11:06:15;18.30;99.90
22734;DHT22;11534;51.994;5.692;2023-07-31T11:08:48;18.30;99.90
22734;DHT22;11534;51.994;5.692;2023-07-31T11:11:19;18.30;99.90
22734;DHT22;11534;51.994;5.692;2023-07-31T11:13:48;18.30;99.90
22734;DHT22;11534;51.994;5.692;2023-07-31T11:16:15;18.40;99.90
22734;DHT22;11534;51.994;5.692;2023-07-31T11:18:45;18.40;99.90
22734;DHT22;11534;51.994;5.692;2023-07-31T11:21:16;18.40;99.90
22734;DHT22;11534;51.994;5.692;2023-07-31T11:23:46;18.40;99.90
22734;DHT22;11534;51.994;5.692;2023-07-31T11:26:12;18.30;99.90
22734;DHT22;11534;51.994;5.692;2023-07-31T11:28:38;18.30;99.90
22734;DHT22;11534;51.994;5.692;2023-07-31T11:31:04;18.40;99.90
22734;DHT22;11534;51.994;5.692;2023-07-31T11:33:30;18.40;99.90
22734;DHT22;11534;51.994;5.692;2023-07-31T11:35:55;18.30;99.90
22734;DHT22;11534;51.994;5.692;2023-07-31T11:38:26;18.40;99.90
22734;DHT22;11534;51.994;5.692;2023-07-31T11:40:57;18.40;99.90
22734;DHT22;11534;51.994;5.692;2023-07-31T11:43:23;18.40;99.90
22734;DHT22;11534;51.994;5.692;2023-07-31T11:45:54;18.40;99.90
22734;DHT22;11534;51.994;5.692;2023-07-31T11:48:28;18.50;99.90
22734;DHT22;11534;51.994;5.692;2023-07-31T11:50:57;18.40;99.90
22734;DHT22;11534;51.994;5.692;2023-07-31T11:53:43;18.50;99.90
22734;DHT22;11534;51.994;5.692;2023-07-31T11:56:12;18.50;99.90
22734;DHT22;11534;51.994;5.692;2023-07-31T11:58:39;18.50;99.90
22734;DHT22;11534;51.994;5.692;2023-07-31T12:01:05;18.60;99.90
22734;DHT22;11534;51.994;5.692;2023-07-31T12:03:32;18.60;99.90
22734;DHT22;11534;51.994;5.692;2023-07-31T12:05:59;18.60;99.90
22734;DHT22;11534;51.994;5.692;2023-07-31T12:08:25;18.60;99.90
22734;DHT22;11534;51.994;5.692;2023-07-31T12:10:52;18.60;99.90
22734;DHT22;11534;51.994;5.692;2023-07-31T12:13:23;18.60;99.90
22734;DHT22;11534;51.994;5.692;2023-07-31T12:15:54;18.60;99.90
22734;DHT22;11534;51.994;5.692;2023-07-31T12:18:22;18.70;99.90
22734;DHT22;11534;51.994;5.692;2023-07-31T12:20:49;18.70;99.90
22734;DHT22;11534;51.994;5.692;2023-07-31T12:23:20;18.70;99.90
22734;DHT22;11534;51.994;5.692;2023-07-31T12:28:50;18.70;99.90
22734;DHT22;11534;51.994;5.692;2023-07-31T12:31:21;18.70;99.90
22734;DHT22;11534;51.994;5.692;2023-07-31T12:33:49;18.70;99.90
22734;DHT22;11534;51.994;5.692;2023-07-31T12:36:17;18.60;99.90
22734;DHT22;11534;51.994;5.692;2023-07-31T12:38:44;18.60;99.90
22734;DHT22;11534;51.994;5.692;2023-07-31T12:41:10;18.50;99.90
22734;DHT22;11534;51.994;5.692;2023-07-31T12:43:37;18.50;99.90
22734;DHT22;11534;51.994;5.692;2023-07-31T12:46:03;18.50;99.90
22734;DHT22;11534;51.994;5.692;2023-07-31T12:48:29;18.60;99.90
22734;DHT22;11534;51.994;5.692;2023-07-31T12:50:55;18.60;99.90
22734;DHT22;11534;51.994;5.692;2023-07-31T12:53:21;18.60;99.90
22734;DHT22;11534;51.994;5.692;2023-07-31T12:55:46;18.60;99.90
22734;DHT22;11534;51.994;5.692;2023-07-31T12:58:12;18.60;99.90
22734;DHT22;11534;51.994;5.692;2023-07-31T13:00:38;18.70;99.90
22734;DHT22;11534;51.994;5.692;2023-07-31T13:03:03;18.80;99.90
22734;DHT22;11534;51.994;5.692;2023-07-31T13:05:29;18.80;99.90
22734;DHT22;11534;51.994;5.692;2023-07-31T13:07:55;18.90;99.90
22734;DHT22;11534;51.994;5.692;2023-07-31T13:10:23;18.80;99.90
22734;DHT22;11534;51.994;5.692;2023-07-31T13:12:49;18.80;99.90
22734;DHT22;11534;51.994;5.692;2023-07-31T13:15:14;18.70;99.90
22734;DHT22;11534;51.994;5.692;2023-07-31T13:17:40;18.70;99.90
22734;DHT22;11534;51.994;5.692;2023-07-31T13:20:06;18.60;99.90
22734;DHT22;11534;51.994;5.692;2023-07-31T13:22:32;18.60;99.90
22734;DHT22;11534;51.994;5.692;2023-07-31T13:24:58;18.60;99.90
22734;DHT22;11534;51.994;5.692;2023-07-31T13:27:24;18.60;99.90
22734;DHT22;11534;51.994;5.692;2023-07-31T13:29:52;18.60;99.90
22734;DHT22;11534;51.994;5.692;2023-07-31T13:32:19;18.60;99.90
22734;DHT22;11534;51.994;5.692;2023-07-31T13:34:46;18.60;99.90
22734;DHT22;11534;51.994;5.692;2023-07-31T13:37:12;18.60;99.90
22734;DHT22;11534;51.994;5.692;2023-07-31T13:39:37;18.60;99.90
22734;DHT22;11534;51.994;5.692;2023-07-31T13:42:04;18.60;99.90
22734;DHT22;11534;51.994;5.692;2023-07-31T13:44:32;18.60;99.90
22734;DHT22;11534;51.994;5.692;2023-07-31T13:46:59;18.60;99.90
22734;DHT22;11534;51.994;5.692;2023-07-31T13:49:25;18.60;99.90
22734;DHT22;11534;51.994;5.692;2023-07-31T13:51:51;18.60;99.90
22734;DHT22;11534;51.994;5.692;2023-07-31T13:54:16;18.60;99.90
22734;DHT22;11534;51.994;5.692;2023-07-31T13:56:43;18.50;99.90
22734;DHT22;11534;51.994;5.692;2023-07-31T13:59:09;18.50;99.90
22734;DHT22;11534;51.994;5.692;2023-07-31T14:01:35;18.40;99.90
22734;DHT22;11534;51.994;5.692;2023-07-31T14:04:01;18.40;99.90
22734;DHT22;11534;51.994;5.692;2023-07-31T14:06:26;18.40;99.90
22734;DHT22;11534;51.994;5.692;2023-07-31T14:08:52;18.40;99.90
22734;DHT22;11534;51.994;5.692;2023-07-31T14:11:17;18.40;99.90
22734;DHT22;11534;51.994;5.692;2023-07-31T14:13:43;18.40;99.90
22734;DHT22;11534;51.994;5.692;2023-07-31T14:16:09;18.50;99.90
22734;DHT22;11534;51.994;5.692;2023-07-31T14:18:34;18.50;99.90
22734;DHT22;11534;51.994;5.692;2023-07-31T14:21:00;18.40;99.90
22734;DHT22;11534;51.994;5.692;2023-07-31T14:23:26;18.50;99.90
22734;DHT22;11534;51.994;5.692;2023-07-31T14:25:51;18.50;99.90
22734;DHT22;11534;51.994;5.692;2023-07-31T14:28:17;18.40;99.90
22734;DHT22;11534;51.994;5.692;2023-07-31T14:30:42;18.50;99.90
22734;DHT22;11534;51.994;5.692;2023-07-31T14:33:08;18.50;99.90
22734;DHT22;11534;51.994;5.692;2023-07-31T14:35:34;18.50;99.90
22734;DHT22;11534;51.994;5.692;2023-07-31T14:38:00;18.50;99.90
22734;DHT22;11534;51.994;5.692;2023-07-31T14:40:26;18.50;99.90
22734;DHT22;11534;51.994;5.692;2023-07-31T14:42:52;18.40;99.90
22734;DHT22;11534;51.994;5.692;2023-07-31T14:45:17;18.40;99.90
22734;DHT22;11534;51.994;5.692;2023-07-31T14:47:43;18.40;99.90
22734;DHT22;11534;51.994;5.692;2023-07-31T14:50:09;18.40;99.90
22734;DHT22;11534;51.994;5.692;2023-07-31T14:52:35;18.40;99.90
22734;DHT22;11534;51.994;5.692;2023-07-31T14:55:00;18.40;99.90
22734;DHT22;11534;51.994;5.692;2023-07-31T14:57:26;18.40;99.90
22734;DHT22;11534;51.994;5.692;2023-07-31T14:59:51;18.40;99.90
22734;DHT22;11534;51.994;5.692;2023-07-31T15:02:17;18.40;99.90
22734;DHT22;11534;51.994;5.692;2023-07-31T15:04:43;18.40;99.90
22734;DHT22;11534;51.994;5.692;2023-07-31T15:07:08;18.40;99.90
22734;DHT22;11534;51.994;5.692;2023-07-31T15:09:34;18.40;99.90
22734;DHT22;11534;51.994;5.692;2023-07-31T15:12:00;18.30;99.90
22734;DHT22;11534;51.994;5.692;2023-07-31T15:14:25;18.30;99.90
22734;DHT22;11534;51.994;5.692;2023-07-31T15:16:53;18.40;99.90
22734;DHT22;11534;51.994;5.692;2023-07-31T15:19:18;18.30;99.90
22734;DHT22;11534;51.994;5.692;2023-07-31T15:21:44;18.40;99.90
22734;DHT22;11534;51.994;5.692;2023-07-31T15:24:10;18.40;99.90
22734;DHT22;11534;51.994;5.692;2023-07-31T15:26:37;18.40;99.90
22734;DHT22;11534;51.994;5.692;2023-07-31T15:29:04;18.30;99.90
22734;DHT22;11534;51.994;5.692;2023-07-31T15:31:43;18.30;99.90
22734;DHT22;11534;51.994;5.692;2023-07-31T15:34:08;18.30;99.90